Time Latitude Longitude Accuracy (66% radius in meters) Altitude (meters) Speed (km/hour) Bearing (degrees) Battery (%) GPS flag
06:56:35 57.203856 60.118587 0 0 0 0 1 delete
06:56:34 57.203857 60.118562 0 0 0 0 1 delete
06:56:33 57.203856 60.118539 0 0 0 0 1 delete
06:56:32 57.203856 60.118514 0 0 0 0 1 delete
06:56:31 57.203856 60.118489 0 0 0 0 1 delete
06:56:30 57.203856 60.118464 0 0 0 0 1 delete
06:56:29 57.203857 60.118440 0 0 0 0 1 delete
06:56:28 57.203857 60.118418 0 0 0 0 1 delete
06:56:27 57.203859 60.118398 0 0 0 0 1 delete
06:56:26 57.203861 60.118381 0 0 0 0 1 delete
06:56:25 57.203864 60.118364 0 0 0 0 1 delete
06:56:24 57.203867 60.118350 0 0 0 0 1 delete
06:56:23 57.203871 60.118339 0 0 0 0 1 delete
06:56:22 57.203874 60.118336 0 0 0 0 1 delete
06:56:21 57.203880 60.118338 0 0 0 0 1 delete
06:56:20 57.203886 60.118343 0 0 0 0 1 delete
06:56:19 57.203899 60.118343 0 0 0 0 1 delete
06:56:18 57.203912 60.118345 0 0 0 0 1 delete
06:56:17 57.203928 60.118358 0 0 0 0 1 delete
06:56:16 57.203945 60.118386 0 0 0 0 1 delete
06:56:15 57.203955 60.118415 0 0 0 0 1 delete
06:56:14 57.203960 60.118430 0 0 0 0 1 delete
06:56:13 57.203952 60.118436 0 0 0 0 1 delete
06:56:12 57.203948 60.118436 0 0 0 0 1 delete
06:56:11 57.203935 60.118446 0 0 0 0 1 delete
06:56:10 57.203926 60.118449 0 0 0 0 1 delete
06:56:09 57.203917 60.118454 0 0 0 0 1 delete
06:56:08 57.203917 60.118452 0 0 0 0 1 delete
06:56:07 57.203919 60.118451 0 0 0 0 1 delete
06:56:06 57.203920 60.118449 0 0 0 0 1 delete
06:56:05 57.203921 60.118448 0 0 0 0 1 delete
06:56:04 57.203922 60.118447 0 0 0 0 1 delete
06:56:03 57.203922 60.118446 0 0 0 0 1 delete
06:56:02 57.203922 60.118447 0 0 0 0 1 delete
06:56:01 57.203923 60.118447 0 0 0 0 1 delete
06:56:00 57.203925 60.118446 0 0 0 0 1 delete
06:55:59 57.203926 60.118445 0 0 0 0 1 delete
06:55:58 57.203927 60.118444 0 0 0 0 1 delete
06:55:57 57.203928 60.118443 0 0 0 0 1 delete
06:55:56 57.203929 60.118443 0 0 0 0 1 delete
06:55:55 57.203931 60.118440 0 0 0 0 1 delete
06:55:54 57.203936 60.118436 0 0 0 0 1 delete
06:55:53 57.203943 60.118428 0 0 0 0 1 delete
06:55:52 57.203951 60.118416 0 0 0 0 1 delete
06:55:51 57.203960 60.118400 0 0 0 0 1 delete
06:55:50 57.203971 60.118382 0 0 0 0 1 delete
06:55:49 57.203981 60.118364 0 0 0 0 1 delete
06:55:48 57.203992 60.118345 0 0 0 0 1 delete
06:55:47 57.204001 60.118330 0 0 0 0 1 delete
06:55:46 57.204009 60.118317 0 0 0 0 1 delete